Time;durP1;ratioP1;P1;durP2;ratioP2;P2;SDS_P1;SDS_P2;PMS_P1;PMS_P2;Temp;Humidity;BMP_temperature;BMP_pressure;BME280_temperature;BME280_humidity;BME280_pressure;Samples;Min_cycle;Max_cycle;Signal;HPM_P1;HPM_P2
2021/08/30 00:00:23;;;;;;;10.02;7.82;;;17.10;99.90;;;;;;5031533;28;20037;-38
2021/08/30 00:02:50;;;;;;;10.60;7.63;;;17.10;99.90;;;;;;5030991;28;20025;-37
2021/08/30 00:05:20;;;;;;;10.50;7.80;;;17.10;99.90;;;;;;5030932;28;20025;-37
2021/08/30 00:07:50;;;;;;;10.05;7.95;;;17.00;99.90;;;;;;5030943;28;20053;-38
2021/08/30 00:10:16;;;;;;;11.98;8.05;;;17.00;99.90;;;;;;5031574;28;20172;-39
2021/08/30 00:12:45;;;;;;;11.85;8.40;;;17.00;99.90;;;;;;5031123;28;20060;-38
2021/08/30 00:15:15;;;;;;;10.60;8.25;;;17.00;99.90;;;;;;5032029;28;20377;-37
2021/08/30 00:17:46;;;;;;;9.95;8.13;;;17.00;99.90;;;;;;5031181;28;20034;-39
2021/08/30 00:20:20;;;;;;;11.35;7.88;;;17.00;99.90;;;;;;5031974;28;20053;-39
2021/08/30 00:22:49;;;;;;;10.02;8.18;;;17.00;99.90;;;;;;5030484;28;20034;-40
2021/08/30 00:25:20;;;;;;;11.35;7.53;;;17.00;99.90;;;;;;5031355;28;20388;-37
2021/08/30 00:27:49;;;;;;;9.98;7.40;;;17.00;99.90;;;;;;5029918;28;20029;-38
2021/08/30 00:30:15;;;;;;;16.45;9.45;;;17.00;99.90;;;;;;5030658;28;20389;-36
2021/08/30 00:32:41;;;;;;;13.60;8.68;;;17.00;99.90;;;;;;5029698;28;20025;-39
2021/08/30 00:35:08;;;;;;;11.00;7.80;;;16.90;99.90;;;;;;5029793;28;20184;-38
2021/08/30 00:37:34;;;;;;;12.63;7.93;;;16.90;99.90;;;;;;5031142;28;20470;-36
2021/08/30 00:40:00;;;;;;;10.80;7.88;;;16.90;99.90;;;;;;5029564;28;20052;-39
2021/08/30 00:42:30;;;;;;;12.88;8.48;;;16.80;99.90;;;;;;5030991;28;20365;-39
2021/08/30 00:45:02;;;;;;;9.95;7.50;;;16.90;99.90;;;;;;5030284;28;20041;-39
2021/08/30 00:47:29;;;;;;;12.05;8.35;;;16.80;99.90;;;;;;5011078;28;20057;-39
2021/08/30 00:49:57;;;;;;;12.35;8.18;;;16.90;99.90;;;;;;5024772;28;20036;-40
2021/08/30 00:52:24;;;;;;;14.45;9.05;;;16.90;99.90;;;;;;5030871;28;20362;-38
2021/08/30 00:54:50;;;;;;;11.63;7.85;;;16.90;99.90;;;;;;5029458;28;20037;-40
2021/08/30 00:57:17;;;;;;;8.98;6.60;;;16.90;99.90;;;;;;5031450;28;20018;-40
2021/08/30 00:59:43;;;;;;;15.93;8.55;;;16.80;99.90;;;;;;5030042;28;20029;-41
2021/08/30 01:02:10;;;;;;;10.10;7.72;;;16.90;99.90;;;;;;5029865;28;20021;-40
2021/08/30 01:04:39;;;;;;;12.63;7.88;;;16.90;99.90;;;;;;5030623;28;20116;-36
2021/08/30 01:07:41;;;;;;;11.38;8.25;;;16.90;99.90;;;;;;5029682;28;20095;-37
2021/08/30 01:10:14;;;;;;;13.52;9.45;;;17.00;99.90;;;;;;5030056;28;20362;-40
2021/08/30 01:12:57;;;;;;;12.88;8.75;;;17.00;99.90;;;;;;5029515;28;20038;-38
2021/08/30 01:15:36;;;;;;;12.30;8.90;;;17.00;99.90;;;;;;5029860;28;20032;-39
2021/08/30 01:18:11;;;;;;;10.20;8.18;;;17.10;99.90;;;;;;5030278;28;20026;-37
2021/08/30 01:21:04;;;;;;;13.45;8.45;;;17.00;99.90;;;;;;5030199;28;20388;-36
2021/08/30 01:23:36;;;;;;;15.80;8.98;;;17.10;99.90;;;;;;5029872;28;20056;-41
2021/08/30 01:26:04;;;;;;;11.47;8.60;;;17.10;99.90;;;;;;5029856;28;20025;-37
2021/08/30 01:28:36;;;;;;;13.80;8.88;;;17.10;99.90;;;;;;5030246;28;20763;-40
2021/08/30 01:31:14;;;;;;;9.97;8.10;;;17.10;99.90;;;;;;5029625;28;20113;-39
2021/08/30 01:33:41;;;;;;;12.18;7.63;;;17.10;99.90;;;;;;5029354;28;20076;-38
2021/08/30 01:36:13;;;;;;;13.80;9.20;;;17.10;99.90;;;;;;5029007;28;20461;-38
2021/08/30 01:39:00;;;;;;;13.70;9.15;;;17.10;99.90;;;;;;5030101;28;20045;-35
2021/08/30 01:41:27;;;;;;;11.75;8.50;;;17.10;99.90;;;;;;5029880;28;20479;-39
2021/08/30 01:43:54;;;;;;;10.50;8.43;;;17.10;99.90;;;;;;5028609;28;20033;-35
2021/08/30 01:46:21;;;;;;;12.07;8.05;;;17.10;99.90;;;;;;5030427;28;20655;-38
2021/08/30 01:48:51;;;;;;;11.20;8.05;;;17.10;99.90;;;;;;5030208;28;20071;-37
2021/08/30 01:51:21;;;;;;;12.63;9.05;;;17.10;99.90;;;;;;5029448;28;20373;-40
2021/08/30 01:53:48;;;;;;;11.13;8.30;;;17.20;99.90;;;;;;5029251;28;20029;-37
2021/08/30 01:56:17;;;;;;;12.38;8.27;;;17.20;99.90;;;;;;5029825;28;20033;-40
2021/08/30 02:01:38;;;;;;;11.15;7.95;;;17.20;99.90;;;;;;5030739;28;20091;-39
2021/08/30 02:04:05;;;;;;;11.57;8.65;;;17.20;99.90;;;;;;5030104;28;20116;-37
2021/08/30 02:06:33;;;;;;;11.48;9.23;;;17.20;99.90;;;;;;5029177;28;20070;-40
2021/08/30 02:08:59;;;;;;;12.05;8.60;;;17.20;99.90;;;;;;5029171;28;20028;-38
2021/08/30 02:11:32;;;;;;;10.25;8.30;;;17.20;99.90;;;;;;5029765;28;20030;-40
2021/08/30 02:14:03;;;;;;;14.63;8.43;;;17.20;99.90;;;;;;5029355;28;20037;-38
2021/08/30 02:16:29;;;;;;;13.85;8.23;;;17.20;99.90;;;;;;5029405;28;20084;-37
2021/08/30 02:19:08;;;;;;;13.02;8.77;;;17.20;99.90;;;;;;5028661;28;20122;-39
2021/08/30 02:21:46;;;;;;;12.63;8.70;;;17.20;99.90;;;;;;5029323;28;20025;-41
2021/08/30 02:24:34;;;;;;;12.15;9.10;;;17.20;99.90;;;;;;5029340;28;20045;-39
2021/08/30 02:27:25;;;;;;;11.55;8.52;;;17.20;99.90;;;;;;5028791;28;20448;-35
2021/08/30 02:30:06;;;;;;;9.90;8.25;;;17.20;99.90;;;;;;5020625;28;20033;-40
2021/08/30 02:32:33;;;;;;;14.13;9.32;;;17.20;99.90;;;;;;5028767;28;20706;-39
2021/08/30 02:35:01;;;;;;;12.30;8.65;;;17.10;99.90;;;;;;5029187;28;20384;-35
2021/08/30 02:37:32;;;;;;;11.63;9.82;;;17.20;99.90;;;;;;5029846;28;20372;-39
2021/08/30 02:40:00;;;;;;;15.63;10.15;;;17.10;99.90;;;;;;5028615;28;20048;-37
2021/08/30 02:42:28;;;;;;;13.30;10.07;;;17.20;99.90;;;;;;5030026;28;20025;-39
2021/08/30 02:44:56;;;;;;;13.40;9.25;;;17.10;99.90;;;;;;5028158;28;20044;-36
2021/08/30 02:47:24;;;;;;;13.20;9.45;;;17.20;99.90;;;;;;5027704;28;20033;-37
2021/08/30 02:49:52;;;;;;;12.77;9.85;;;17.10;99.90;;;;;;5029040;28;20053;-38
2021/08/30 02:52:21;;;;;;;12.88;9.75;;;17.10;99.90;;;;;;5029710;28;20017;-40
2021/08/30 02:54:50;;;;;;;12.82;9.82;;;17.10;99.90;;;;;;5028028;28;20177;-41
2021/08/30 02:57:17;;;;;;;13.65;10.23;;;17.20;99.90;;;;;;5031230;28;20439;-39
2021/08/30 02:59:50;;;;;;;12.02;9.43;;;17.10;99.90;;;;;;5033198;28;20104;-37
2021/08/30 03:02:16;;;;;;;;;;;17.10;99.90;;;;;;5033676;28;20041;-40
2021/08/30 03:04:42;;;;;;;16.38;10.32;;;17.10;99.90;;;;;;5033206;28;19917;-39
2021/08/30 03:07:09;;;;;;;12.90;9.57;;;17.10;99.90;;;;;;5032717;28;20028;-37
2021/08/30 03:09:40;;;;;;;15.32;9.45;;;17.10;99.90;;;;;;5029138;28;20439;-40
2021/08/30 03:12:08;;;;;;;14.50;10.75;;;17.10;99.90;;;;;;5032802;28;20121;-38
2021/08/30 03:14:37;;;;;;;14.68;10.73;;;17.10;99.90;;;;;;5032530;28;20026;-41
2021/08/30 03:17:09;;;;;;;10.88;9.23;;;17.10;99.90;;;;;;5032300;28;20014;-40
2021/08/30 03:19:45;;;;;;;13.98;10.23;;;17.10;99.90;;;;;;5032779;28;20060;-41
2021/08/30 03:22:21;;;;;;;15.32;10.18;;;17.10;99.90;;;;;;5032191;28;20033;-38
2021/08/30 03:24:49;;;;;;;16.98;10.35;;;17.10;99.90;;;;;;5031323;28;20128;-40
2021/08/30 03:27:16;;;;;;;13.85;10.15;;;17.10;99.90;;;;;;5032665;28;20029;-38
2021/08/30 03:29:43;;;;;;;14.23;9.75;;;17.10;99.90;;;;;;5031425;28;20455;-40
2021/08/30 03:32:13;;;;;;;15.65;10.25;;;17.10;99.90;;;;;;5032406;28;20045;-39
2021/08/30 03:34:43;;;;;;;14.43;10.48;;;17.10;99.90;;;;;;5032314;28;20392;-38
2021/08/30 03:37:10;;;;;;;13.88;9.27;;;17.10;99.90;;;;;;5030989;28;20034;-39
2021/08/30 03:39:38;;;;;;;14.95;9.90;;;17.10;99.90;;;;;;5032232;28;20088;-37
2021/08/30 03:42:06;;;;;;;13.15;10.57;;;17.10;99.90;;;;;;5032438;28;20075;-39
2021/08/30 03:44:35;;;;;;;14.07;10.18;;;17.10;99.90;;;;;;5031083;28;20061;-36
2021/08/30 03:47:04;;;;;;;15.25;11.30;;;17.20;99.90;;;;;;5031537;28;20017;-38
2021/08/30 03:49:31;;;;;;;14.57;11.13;;;17.10;99.90;;;;;;5031441;28;20394;-40
2021/08/30 03:51:59;;;;;;;17.52;11.57;;;17.10;99.90;;;;;;5031749;28;20460;-37
2021/08/30 03:54:25;;;;;;;15.80;11.73;;;17.20;99.90;;;;;;5031889;28;20435;-39
2021/08/30 03:56:53;;;;;;;13.38;10.52;;;17.20;99.90;;;;;;5029202;28;20384;-38
2021/08/30 03:59:20;;;;;;;21.30;11.40;;;17.20;99.90;;;;;;5031491;28;20103;-38
2021/08/30 04:01:52;;;;;;;14.63;10.73;;;17.10;99.90;;;;;;5031704;28;20358;-40
2021/08/30 04:04:32;;;;;;;15.50;11.15;;;17.10;99.90;;;;;;5031567;28;20033;-37
2021/08/30 04:07:00;;;;;;;15.95;10.75;;;17.10;99.90;;;;;;5031370;28;20064;-37
2021/08/30 04:09:28;;;;;;;13.63;10.00;;;17.10;99.90;;;;;;5031378;28;20049;-39
2021/08/30 04:11:54;;;;;;;17.00;10.65;;;17.20;99.90;;;;;;5030375;28;20018;-37
2021/08/30 04:14:20;;;;;;;17.20;11.90;;;17.20;99.90;;;;;;5032627;28;20017;-39
2021/08/30 04:16:47;;;;;;;15.85;11.07;;;17.20;99.90;;;;;;5031308;28;20021;-39
2021/08/30 04:19:13;;;;;;;19.70;11.95;;;17.20;99.90;;;;;;5031163;28;20029;-41
2021/08/30 04:21:41;;;;;;;18.27;12.25;;;17.20;99.90;;;;;;5031316;28;20104;-40
2021/08/30 04:24:17;;;;;;;13.77;11.07;;;17.30;99.90;;;;;;5030946;28;20053;-40
2021/08/30 04:26:44;;;;;;;18.55;12.02;;;17.30;99.90;;;;;;5029490;28;20128;-40
2021/08/30 04:29:12;;;;;;;16.63;12.27;;;17.30;99.90;;;;;;5031207;28;20025;-38
2021/08/30 04:31:38;;;;;;;18.83;12.25;;;17.30;99.90;;;;;;5030289;28;20026;-40
2021/08/30 04:34:03;;;;;;;18.42;12.40;;;17.30;99.90;;;;;;5031156;28;20424;-38
2021/08/30 04:36:30;;;;;;;21.45;13.05;;;17.30;99.90;;;;;;5031827;28;20531;-40
2021/08/30 04:38:58;;;;;;;20.63;12.68;;;17.30;99.90;;;;;;5030512;28;20450;-38
2021/08/30 04:41:27;;;;;;;19.60;13.93;;;17.30;99.90;;;;;;5031487;28;20029;-37
2021/08/30 04:43:55;;;;;;;21.27;13.68;;;17.30;99.90;;;;;;5031080;28;20384;-41
2021/08/30 04:46:21;;;;;;;17.85;12.27;;;17.30;99.90;;;;;;5030924;28;20093;-39
2021/08/30 04:48:53;;;;;;;19.27;14.02;;;17.30;99.90;;;;;;5030749;28;20536;-39
2021/08/30 04:51:32;;;;;;;21.15;12.65;;;17.30;99.90;;;;;;5031566;28;20032;-35
2021/08/30 04:54:01;;;;;;;21.13;14.38;;;17.30;99.90;;;;;;5027060;28;20034;-41
2021/08/30 04:56:34;;;;;;;24.40;14.25;;;17.30;99.90;;;;;;5031666;28;20056;-40
2021/08/30 04:59:00;;;;;;;22.85;13.60;;;17.30;99.90;;;;;;5028811;28;20061;-39
2021/08/30 05:01:29;;;;;;;22.80;14.77;;;17.30;99.90;;;;;;5029880;28;20076;-40
2021/08/30 05:03:59;;;;;;;22.23;14.20;;;17.30;99.90;;;;;;5029754;28;20056;-35
2021/08/30 05:06:31;;;;;;;21.70;13.68;;;17.30;99.90;;;;;;5030639;28;20027;-37
2021/08/30 05:08:56;;;;;;;24.60;14.88;;;17.30;99.90;;;;;;5029259;28;20080;-36
2021/08/30 05:11:22;;;;;;;23.20;14.27;;;17.30;99.90;;;;;;5029990;28;20061;-39
2021/08/30 05:13:53;;;;;;;22.67;14.10;;;17.40;99.90;;;;;;5029439;28;20025;-40
2021/08/30 05:16:27;;;;;;;22.70;13.60;;;17.40;99.90;;;;;;5030314;28;20358;-40
2021/08/30 05:19:00;;;;;;;17.83;12.07;;;17.40;99.90;;;;;;5029005;28;20036;-34
2021/08/30 05:21:34;;;;;;;21.35;12.90;;;17.40;99.90;;;;;;5030455;28;20025;-39
2021/08/30 05:24:01;;;;;;;25.50;14.90;;;17.40;99.90;;;;;;5029453;28;20037;-38
2021/08/30 05:26:29;;;;;;;27.15;15.15;;;17.40;99.90;;;;;;5030658;28;20080;-39
2021/08/30 05:28:55;;;;;;;23.52;15.57;;;17.50;99.90;;;;;;5029688;28;20036;-39
2021/08/30 05:31:20;;;;;;;24.92;15.15;;;17.50;99.90;;;;;;5030116;28;20018;-35
2021/08/30 05:33:52;;;;;;;22.33;14.00;;;17.50;99.90;;;;;;5029408;28;20029;-38
2021/08/30 05:36:24;;;;;;;18.25;13.20;;;17.50;99.90;;;;;;5029856;28;20017;-38
2021/08/30 05:38:51;;;;;;;22.25;13.85;;;17.60;99.90;;;;;;5029485;28;20028;-40
2021/08/30 05:41:20;;;;;;;24.48;14.50;;;17.70;99.90;;;;;;5030324;28;20424;-40
2021/08/30 05:43:49;;;;;;;23.33;14.25;;;17.70;99.90;;;;;;5029123;28;20033;-34
2021/08/30 05:46:17;;;;;;;24.98;14.85;;;17.70;99.90;;;;;;5029177;28;20021;-37
2021/08/30 05:48:45;;;;;;;26.80;15.15;;;17.70;99.90;;;;;;5029386;28;20026;-38
2021/08/30 05:51:10;;;;;;;23.98;14.80;;;17.60;99.90;;;;;;5029700;28;20021;-37
2021/08/30 05:53:37;;;;;;;21.75;14.95;;;17.60;99.90;;;;;;5031072;28;20083;-37
2021/08/30 05:56:02;;;;;;;24.88;14.85;;;17.60;99.90;;;;;;5028940;28;20377;-40
2021/08/30 05:58:34;;;;;;;21.40;13.40;;;17.60;99.90;;;;;;5029097;28;20029;-35
2021/08/30 06:01:09;;;;;;;19.15;13.30;;;17.60;99.90;;;;;;5024763;28;20187;-37
2021/08/30 06:03:36;;;;;;;25.05;14.57;;;17.60;99.90;;;;;;5028621;28;20520;-40
2021/08/30 06:06:02;;;;;;;21.23;15.07;;;17.70;99.90;;;;;;5028698;28;20159;-39
2021/08/30 06:08:30;;;;;;;23.33;14.63;;;17.80;99.90;;;;;;5028774;28;20018;-40
2021/08/30 06:11:07;;;;;;;21.45;13.98;;;17.80;99.90;;;;;;5026067;28;20403;-39
2021/08/30 06:13:38;;;;;;;21.52;13.88;;;17.90;99.90;;;;;;5028769;28;20117;-37
2021/08/30 06:16:08;;;;;;;20.30;14.07;;;18.00;99.90;;;;;;5030153;28;20391;-38
2021/08/30 06:18:44;;;;;;;23.20;15.02;;;18.10;99.90;;;;;;5031172;28;20025;-40
2021/08/30 06:21:21;;;;;;;22.48;13.93;;;18.20;99.90;;;;;;5031648;28;20029;-38
2021/08/30 06:23:49;;;;;;;23.65;13.90;;;18.20;99.90;;;;;;5009648;28;20050;-41
2021/08/30 06:29:48;;;;;;;22.25;14.32;;;18.30;99.90;;;;;;5016337;28;20103;-37
2021/08/30 06:32:13;;;;;;;23.58;15.00;;;18.40;99.90;;;;;;5033805;28;20037;-39
2021/08/30 06:34:41;;;;;;;22.80;13.45;;;18.50;99.90;;;;;;5029115;28;20021;-39
2021/08/30 06:37:08;;;;;;;20.17;13.48;;;18.50;99.90;;;;;;5029210;28;20021;-40
2021/08/30 06:39:36;;;;;;;20.67;13.40;;;18.50;99.90;;;;;;5028796;28;20029;-39
2021/08/30 06:42:03;;;;;;;20.77;12.88;;;18.60;99.90;;;;;;5027649;28;20878;-38
2021/08/30 06:44:28;;;;;;;15.50;11.90;;;18.60;99.90;;;;;;5028954;28;20033;-39
2021/08/30 06:47:00;;;;;;;21.77;13.43;;;18.60;99.90;;;;;;5027507;28;20027;-38
2021/08/30 06:49:25;;;;;;;19.95;13.05;;;18.70;99.90;;;;;;5029420;28;20564;-39
2021/08/30 06:51:51;;;;;;;25.00;14.75;;;18.60;99.90;;;;;;5027645;28;20485;-39
2021/08/30 06:54:16;;;;;;;20.38;13.45;;;18.70;99.90;;;;;;5028771;28;20029;-40
2021/08/30 06:56:47;;;;;;;20.73;13.02;;;18.70;99.90;;;;;;5028362;28;20026;-38
2021/08/30 06:59:13;;;;;;;19.90;12.55;;;18.60;99.90;;;;;;5033792;28;20064;-37
2021/08/30 07:01:39;;;;;;;22.40;12.23;;;18.60;99.90;;;;;;5028334;28;20017;-39
2021/08/30 07:04:11;;;;;;;18.63;12.57;;;18.60;99.90;;;;;;5028434;28;20117;-35
2021/08/30 07:06:36;;;;;;;21.10;12.57;;;18.70;99.90;;;;;;5028012;28;20034;-40
2021/08/30 07:09:03;;;;;;;18.52;13.25;;;18.60;99.90;;;;;;5028263;28;20051;-40
2021/08/30 07:11:30;;;;;;;19.35;12.63;;;18.60;99.90;;;;;;5028297;28;20017;-33
2021/08/30 07:13:55;;;;;;;21.98;12.98;;;18.60;99.90;;;;;;5038083;28;20018;-36
2021/08/30 07:16:24;;;;;;;20.58;12.25;;;18.70;99.90;;;;;;5028576;28;20036;-40
2021/08/30 07:18:49;;;;;;;22.05;12.98;;;18.70;99.90;;;;;;5027883;28;20032;-40
2021/08/30 07:21:15;;;;;;;19.13;12.63;;;18.70;99.90;;;;;;5028452;28;20014;-40
2021/08/30 07:23:41;;;;;;;23.05;13.98;;;18.70;99.90;;;;;;5027244;28;20057;-41
2021/08/30 07:26:06;;;;;;;22.92;13.95;;;18.70;99.90;;;;;;5029277;28;20028;-44
2021/08/30 07:28:32;;;;;;;22.05;13.57;;;18.70;99.90;;;;;;5028114;28;20433;-43
2021/08/30 07:30:57;;;;;;;18.10;13.10;;;18.70;99.90;;;;;;5028941;28;20057;-43
2021/08/30 07:33:23;;;;;;;20.95;13.52;;;18.70;99.90;;;;;;5028709;28;20088;-43
2021/08/30 07:35:49;;;;;;;25.10;14.90;;;18.80;99.90;;;;;;5027282;28;20084;-40
2021/08/30 07:38:14;;;;;;;20.30;13.68;;;18.80;99.90;;;;;;5028234;28;20017;-39
2021/08/30 07:40:40;;;;;;;20.98;13.50;;;18.80;99.90;;;;;;5028598;28;20277;-41
2021/08/30 07:43:05;;;;;;;23.73;13.23;;;18.90;99.90;;;;;;5028855;28;20063;-42
2021/08/30 07:45:31;;;;;;;27.65;15.23;;;18.90;99.90;;;;;;5032943;28;20085;-41
2021/08/30 07:47:56;;;;;;;20.50;13.60;;;19.00;99.90;;;;;;5031492;28;20358;-39
2021/08/30 07:50:22;;;;;;;21.88;14.20;;;19.00;99.90;;;;;;5040156;28;20017;-39
2021/08/30 07:52:48;;;;;;;18.35;12.70;;;19.00;99.90;;;;;;5031270;28;20016;-40
2021/08/30 07:55:15;;;;;;;24.67;13.07;;;19.00;99.90;;;;;;5034346;28;20476;-40
2021/08/30 07:57:41;;;;;;;21.63;13.15;;;19.00;99.90;;;;;;5037880;28;20052;-41
2021/08/30 08:00:07;;;;;;;19.80;13.80;;;19.10;99.90;;;;;;5039496;28;20396;-42
2021/08/30 08:02:35;;;;;;;22.77;14.68;;;19.10;99.90;;;;;;5036042;28;20026;-39
2021/08/30 08:05:01;;;;;;;26.85;14.68;;;19.10;99.90;;;;;;5036464;28;20028;-38
2021/08/30 08:07:26;;;;;;;21.52;13.90;;;19.10;99.90;;;;;;5043712;28;20368;-43
2021/08/30 08:09:54;;;;;;;21.25;14.52;;;19.10;99.90;;;;;;5031920;28;20037;-41
2021/08/30 08:12:21;;;;;;;21.08;13.45;;;19.20;99.90;;;;;;5011655;28;20504;-41
2021/08/30 08:14:46;;;;;;;17.73;13.68;;;19.20;99.90;;;;;;5025214;28;20029;-39
2021/08/30 08:17:12;;;;;;;16.85;13.20;;;19.20;99.90;;;;;;5031121;28;20087;-40
2021/08/30 08:19:37;;;;;;;25.70;12.52;;;19.20;99.90;;;;;;5029448;28;20029;-39
2021/08/30 08:22:03;;;;;;;19.02;14.18;;;19.20;99.90;;;;;;5029332;28;20029;-41
2021/08/30 08:24:29;;;;;;;19.55;12.27;;;19.20;99.90;;;;;;5030395;28;20092;-39
2021/08/30 08:26:56;;;;;;;17.25;13.02;;;19.30;99.90;;;;;;5030823;28;20025;-39
2021/08/30 08:29:22;;;;;;;20.42;14.75;;;19.30;99.90;;;;;;5031189;28;20040;-41
2021/08/30 08:31:48;;;;;;;16.98;12.80;;;19.30;99.90;;;;;;5029454;28;20044;-35
2021/08/30 08:34:13;;;;;;;15.88;12.38;;;19.50;99.90;;;;;;5031395;28;20466;-40
2021/08/30 08:36:40;;;;;;;18.48;12.55;;;19.50;99.90;;;;;;5030969;28;20021;-37
2021/08/30 08:39:09;;;;;;;17.38;12.45;;;19.50;99.90;;;;;;5030651;28;20899;-38
2021/08/30 08:41:36;;;;;;;19.70;13.98;;;19.60;99.90;;;;;;5035995;28;20017;-40
2021/08/30 08:44:04;;;;;;;16.95;12.93;;;19.60;99.90;;;;;;5030604;28;20092;-41
2021/08/30 08:46:35;;;;;;;17.45;12.85;;;19.60;99.90;;;;;;5030269;28;20507;-37
2021/08/30 08:49:01;;;;;;;17.25;12.35;;;19.70;99.90;;;;;;5030568;28;20508;-40
2021/08/30 08:51:26;;;;;;;14.73;11.43;;;19.80;99.90;;;;;;5030963;28;20021;-39
2021/08/30 08:53:52;;;;;;;17.23;11.15;;;19.80;99.90;;;;;;5029146;28;20404;-40
2021/08/30 08:56:24;;;;;;;13.25;10.52;;;19.90;99.90;;;;;;5030643;28;20028;-40
2021/08/30 08:58:49;;;;;;;14.43;10.73;;;20.10;99.90;;;;;;5031003;28;20021;-38
2021/08/30 09:01:15;;;;;;;16.52;11.00;;;20.10;99.90;;;;;;5036260;28;20032;-38
2021/08/30 09:03:50;;;;;;;13.38;10.32;;;20.20;99.90;;;;;;5030600;28;20095;-38
2021/08/30 09:06:28;;;;;;;11.88;9.93;;;20.30;99.90;;;;;;5030343;28;20017;-39
2021/08/30 09:09:14;;;;;;;14.48;10.32;;;20.40;99.90;;;;;;5030032;28;20440;-38
2021/08/30 09:11:45;;;;;;;11.90;9.55;;;20.60;99.90;;;;;;5029986;28;20079;-40
2021/08/30 09:14:26;;;;;;;13.32;9.43;;;20.70;99.90;;;;;;5030124;28;20033;-41
2021/08/30 09:17:21;;;;;;;13.93;9.32;;;20.70;99.90;;;;;;5029305;28;20056;-40
2021/08/30 09:19:51;;;;;;;12.88;8.70;;;20.70;99.90;;;;;;5008675;28;20517;-38
2021/08/30 09:22:27;;;;;;;11.43;8.52;;;20.70;99.90;;;;;;5026488;28;20432;-41
2021/08/30 09:25:03;;;;;;;10.57;8.77;;;20.70;99.90;;;;;;5029862;28;20056;-40
2021/08/30 09:27:35;;;;;;;12.77;8.52;;;20.70;99.90;;;;;;5029046;28;20017;-39
2021/08/30 09:30:06;;;;;;;10.50;8.63;;;20.70;99.90;;;;;;5029725;28;20018;-39
2021/08/30 09:32:36;;;;;;;9.77;8.35;;;20.70;99.90;;;;;;5029984;28;20326;-38
2021/08/30 09:35:02;;;;;;;8.80;7.63;;;20.70;99.90;;;;;;5036173;28;20849;-36
2021/08/30 09:37:28;;;;;;;12.13;9.13;;;20.80;99.90;;;;;;5036190;28;20041;-42
2021/08/30 09:39:59;;;;;;;11.77;8.23;;;20.80;99.90;;;;;;5029799;28;20100;-44
2021/08/30 09:42:25;;;;;;;11.88;8.98;;;20.70;99.90;;;;;;5029416;28;20526;-44
2021/08/30 09:44:51;;;;;;;11.63;8.25;;;20.80;99.90;;;;;;5029692;28;20037;-42
2021/08/30 09:47:21;;;;;;;11.80;8.90;;;20.80;99.90;;;;;;5029583;28;20018;-43
2021/08/30 09:49:50;;;;;;;9.75;7.90;;;20.90;99.90;;;;;;5035371;28;20196;-42
2021/08/30 09:52:18;;;;;;;9.70;8.20;;;20.90;99.90;;;;;;5029129;28;20418;-44
2021/08/30 09:54:44;;;;;;;8.90;8.00;;;21.00;99.90;;;;;;5029538;28;20028;-42
2021/08/30 09:57:12;;;;;;;9.52;7.63;;;21.00;99.90;;;;;;5029263;28;20469;-41
2021/08/30 09:59:38;;;;;;;10.82;7.93;;;21.20;99.90;;;;;;5029923;28;20017;-37
2021/08/30 10:02:09;;;;;;;8.38;7.53;;;21.20;99.90;;;;;;5029409;28;20476;-45
2021/08/30 10:04:36;;;;;;;11.05;8.30;;;21.30;99.90;;;;;;5029554;28;20039;-42
2021/08/30 10:07:03;;;;;;;11.38;8.30;;;21.20;99.90;;;;;;5029073;28;20033;-41
2021/08/30 10:09:30;;;;;;;10.60;8.90;;;21.20;99.90;;;;;;5028818;28;20540;-40
2021/08/30 10:11:57;;;;;;;10.88;8.50;;;21.20;99.90;;;;;;5029549;28;20606;-39
2021/08/30 10:14:26;;;;;;;8.50;7.63;;;21.20;99.90;;;;;;5027293;28;20030;-39
2021/08/30 10:16:52;;;;;;;10.13;7.90;;;21.20;99.90;;;;;;5037267;28;20021;-41
2021/08/30 10:19:29;;;;;;;12.50;8.88;;;21.30;99.90;;;;;;5030959;28;20021;-41
2021/08/30 10:21:55;;;;;;;10.50;8.65;;;21.40;99.90;;;;;;5028045;28;20104;-37
2021/08/30 10:24:21;;;;;;;10.07;7.90;;;21.40;99.90;;;;;;5027850;28;20049;-40
2021/08/30 10:26:48;;;;;;;9.95;7.72;;;21.40;99.90;;;;;;5028291;28;20022;-39
2021/08/30 10:29:14;;;;;;;10.10;7.68;;;21.40;99.90;;;;;;5031633;28;20057;-36
2021/08/30 10:31:51;;;;;;;10.55;7.70;;;21.40;99.90;;;;;;5045565;28;20028;-41
2021/08/30 10:34:26;;;;;;;11.13;7.97;;;21.50;99.50;;;;;;5033268;28;20610;-39
2021/08/30 10:36:52;;;;;;;7.70;6.90;;;21.60;99.30;;;;;;5028411;28;20117;-41
2021/08/30 10:39:18;;;;;;;8.35;7.38;;;21.70;99.30;;;;;;5027623;28;20014;-42
2021/08/30 10:41:45;;;;;;;8.27;7.28;;;21.80;98.90;;;;;;5028391;28;20095;-40
2021/08/30 10:44:18;;;;;;;8.63;7.55;;;21.80;98.70;;;;;;5027916;28;20036;-40
2021/08/30 10:46:54;;;;;;;8.32;6.57;;;21.80;98.80;;;;;;5028645;28;20034;-39
2021/08/30 10:49:28;;;;;;;8.20;7.28;;;21.80;98.90;;;;;;5028609;28;20032;-42
2021/08/30 10:52:05;;;;;;;7.93;7.13;;;21.90;98.90;;;;;;5027094;28;20384;-41
2021/08/30 10:54:31;;;;;;;7.43;6.68;;;22.00;98.70;;;;;;5028177;28;20496;-41
2021/08/30 10:57:02;;;;;;;8.07;6.55;;;22.10;98.60;;;;;;5028929;28;20021;-41
2021/08/30 10:59:30;;;;;;;7.18;6.43;;;22.10;98.80;;;;;;5026733;28;20018;-39
2021/08/30 11:01:59;;;;;;;7.78;6.47;;;22.30;98.50;;;;;;5027967;28;20377;-41
2021/08/30 11:04:36;;;;;;;7.05;6.35;;;22.40;97.90;;;;;;5027907;28;20022;-42
2021/08/30 11:07:03;;;;;;;7.03;6.07;;;22.40;97.80;;;;;;5028213;28;20250;-36
2021/08/30 11:09:29;;;;;;;7.68;6.55;;;22.50;97.50;;;;;;5028357;28;20556;-40
2021/08/30 11:11:55;;;;;;;7.60;6.00;;;22.50;97.40;;;;;;5027998;28;20033;-39
2021/08/30 11:14:21;;;;;;;6.63;5.80;;;22.50;97.20;;;;;;5030213;28;20045;-41
2021/08/30 11:16:55;;;;;;;7.07;6.13;;;22.50;97.60;;;;;;5036454;28;20793;-45
2021/08/30 11:19:41;;;;;;;11.43;6.97;;;22.50;97.70;;;;;;5038203;28;20476;-41
2021/08/30 11:22:07;;;;;;;6.97;6.15;;;22.60;97.50;;;;;;5038230;28;20060;-43
2021/08/30 11:24:43;;;;;;;7.65;6.32;;;22.60;97.50;;;;;;5036981;28;20076;-40
2021/08/30 11:27:32;;;;;;;8.93;7.00;;;22.70;97.40;;;;;;5037388;28;20078;-41
2021/08/30 11:29:59;;;;;;;7.68;6.38;;;22.70;96.80;;;;;;5040318;28;20021;-40
2021/08/30 11:32:27;;;;;;;7.65;5.85;;;22.60;97.10;;;;;;5032526;28;20615;-39
2021/08/30 11:35:00;;;;;;;7.50;6.05;;;22.50;97.10;;;;;;5030914;28;20470;-36
2021/08/30 11:37:31;;;;;;;6.50;5.88;;;22.50;97.10;;;;;;5029116;28;20033;-37
2021/08/30 11:39:59;;;;;;;6.55;5.75;;;22.50;97.10;;;;;;5031460;28;20030;-39
2021/08/30 11:42:31;;;;;;;6.75;6.05;;;22.60;97.10;;;;;;5030556;28;20437;-38
2021/08/30 11:44:59;;;;;;;6.78;6.13;;;22.80;97.00;;;;;;5031126;28;20128;-38
2021/08/30 11:47:25;;;;;;;7.85;6.50;;;22.80;96.40;;;;;;5032141;28;20025;-39
2021/08/30 11:49:54;;;;;;;6.93;5.97;;;22.90;96.10;;;;;;5030858;28;20044;-38
2021/08/30 11:52:41;;;;;;;7.68;6.03;;;22.80;96.00;;;;;;5031106;28;20029;-40
2021/08/30 11:55:10;;;;;;;5.43;4.93;;;22.80;96.20;;;;;;5030786;28;20421;-40
2021/08/30 11:57:37;;;;;;;6.95;5.72;;;22.90;96.10;;;;;;5031535;28;20762;-38
2021/08/30 12:00:04;;;;;;;6.10;5.50;;;22.80;95.70;;;;;;5031019;28;20026;-39
2021/08/30 12:02:39;;;;;;;7.10;6.18;;;22.80;95.50;;;;;;5030394;28;20025;-41
2021/08/30 12:05:06;;;;;;;6.32;5.72;;;22.70;95.70;;;;;;5020482;28;20152;-35
2021/08/30 12:07:36;;;;;;;5.80;5.20;;;22.80;95.90;;;;;;5036974;28;20021;-36
2021/08/30 12:10:04;;;;;;;6.13;5.00;;;22.90;96.10;;;;;;5030722;28;20440;-38
2021/08/30 12:12:55;;;;;;;6.47;5.30;;;23.00;96.10;;;;;;5028006;28;20029;-40
2021/08/30 12:15:23;;;;;;;6.93;5.40;;;23.00;95.30;;;;;;5042179;28;20036;-40
2021/08/30 12:17:54;;;;;;;5.85;5.25;;;22.90;94.70;;;;;;5031315;28;20435;-39
2021/08/30 12:20:41;;;;;;;6.35;5.20;;;22.80;95.00;;;;;;5029603;28;20472;-40
2021/08/30 12:23:16;;;;;;;4.70;4.30;;;22.80;95.30;;;;;;5030756;28;20095;-35
2021/08/30 12:25:43;;;;;;;6.05;4.50;;;22.70;95.70;;;;;;5031067;28;20187;-40
2021/08/30 12:28:13;;;;;;;4.95;4.45;;;22.70;95.90;;;;;;5031502;28;20021;-40
2021/08/30 12:30:43;;;;;;;6.88;4.82;;;22.70;96.10;;;;;;5032284;28;20049;-36
2021/08/30 12:33:16;;;;;;;5.55;4.85;;;22.80;96.00;;;;;;5030080;28;20029;-39
2021/08/30 12:35:45;;;;;;;5.72;4.88;;;22.80;95.30;;;;;;5030001;28;20033;-40
2021/08/30 12:38:11;;;;;;;7.40;5.32;;;22.80;95.30;;;;;;5029949;28;20388;-40
2021/08/30 12:40:42;;;;;;;6.05;5.35;;;22.70;95.40;;;;;;5029958;28;20042;-38
2021/08/30 12:43:07;;;;;;;5.60;5.10;;;22.70;95.00;;;;;;5032571;28;20128;-38
2021/08/30 12:45:34;;;;;;;5.57;5.07;;;22.70;95.40;;;;;;5036740;28;20105;-37
2021/08/30 12:47:59;;;;;;;5.55;5.05;;;22.90;95.50;;;;;;5030924;28;20022;-42
2021/08/30 12:50:26;;;;;;;6.82;5.20;;;23.00;95.00;;;;;;5030111;28;20510;-40
2021/08/30 12:52:52;;;;;;;6.03;4.78;;;23.10;94.90;;;;;;5030097;28;20022;-39